First Clarity — A8RM8 — position and weather

sailwx.info

Track history (hours):
 
Tides and Currents Weather Stations Pressure Air Temp Water Temp Dewpoint Dewpoint Depression Visibility Wind Speed Wind Dir Waves Ship Positions

First Clarity

Last reported at 2016-Jul-25 16:25 UTC. Time now 2016-Jul-28 22:20 UTC.
Position N 34°29' E 138°30'.

Length 104 m; draft 5.7 m.

Type: Cargo ship. MMSI: 636014129.

Date/timePositionNaut miles runAvg speedWind from/ knotsBaromVisibWave heightAir tempDewpointWater temp
2016-Jul-25 16:25N 34°29' E 138°30'69 9.9
2016-Jul-25 09:26N 35°06' E 139°42'8 9.7
2016-Jul-25 08:33N 35°13' E 139°46'9 9.1
2016-Jul-25 07:33N 35°22' E 139°42'4 3.8
2016-Jul-25 06:31N 35°24' E 139°38'0 0.0
2016-Jul-25 05:31N 35°24' E 139°38'0 0.0
2016-Jul-25 04:31N 35°24' E 139°38'0 0.0
2016-Jul-25 03:31N 35°24' E 139°38'0 0.0
2016-Jul-25 02:31N 35°24' E 139°38'0 0.0
2016-Jul-25 01:31N 35°24' E 139°38'0 0.0
2016-Jul-25 00:31N 35°24' E 139°38'0 0.0
2016-Jul-24 23:31N 35°24' E 139°38'0 0.0
2016-Jul-24 22:31N 35°24' E 139°38'0 0.0
2016-Jul-24 21:31N 35°24' E 139°38'0 0.0
2016-Jul-24 20:31N 35°24' E 139°38'0 0.0
2016-Jul-24 19:31N 35°24' E 139°38'0 0.0
2016-Jul-24 18:31N 35°24' E 139°38'0 0.0
2016-Jul-24 17:31N 35°24' E 139°38'0 0.0
2016-Jul-24 16:31N 35°24' E 139°38'0 0.0
2016-Jul-24 15:31N 35°24' E 139°38'0 0.0
2016-Jul-24 14:31N 35°24' E 139°38'0 0.0
2016-Jul-24 13:31N 35°24' E 139°38'0 0.0
2016-Jul-24 12:31N 35°24' E 139°38'0 0.0
2016-Jul-24 11:31N 35°24' E 139°38'0 0.0
2016-Jul-24 10:31N 35°24' E 139°38'0 0.0
2016-Jul-24 09:31N 35°24' E 139°38'0 0.0
2016-Jul-24 08:31N 35°24' E 139°38'0 0.0
2016-Jul-24 07:31N 35°24' E 139°38'0 0.0
2016-Jul-24 06:31N 35°24' E 139°38'0 0.0
2016-Jul-24 05:31N 35°24' E 139°38'0 0.0
2016-Jul-24 04:31N 35°24' E 139°38'0 0.0
2016-Jul-24 03:31N 35°24' E 139°38'0 0.0
2016-Jul-24 02:31N 35°24' E 139°38'0 0.0
2016-Jul-24 01:31N 35°24' E 139°38'0 0.0
2016-Jul-24 00:31N 35°24' E 139°38'0 0.0
2016-Jul-23 23:32N 35°24' E 139°38'2 1.7
2016-Jul-23 22:34N 35°23' E 139°40'0 0.3
2016-Jul-23 21:31N 35°23' E 139°40'0 0.0
2016-Jul-23 20:31N 35°23' E 139°40'0 0.1
2016-Jul-23 19:33N 35°23' E 139°40'4 4.3
2016-Jul-23 18:33N 35°20' E 139°43'10 9.8
2016-Jul-23 17:33N 35°11' E 139°47'10 9.9
2016-Jul-23 16:33N 35°02' E 139°41'  
Track history (hours):
 
Tides and Currents Weather Stations Pressure Air Temp Water Temp Dewpoint Dewpoint Depression Visibility Wind Speed Wind Dir Waves Ship Positions

First Clarity

Last reported at 2016-Jul-25 16:25 UTC. Time now 2016-Jul-28 22:21 UTC.
Position N 34°29' E 138°30'.

Length 104 m; draft 5.7 m.

Type: Cargo ship. MMSI: 636014129.

Date/timePositionNaut miles runAvg speedWind from/ knotsBaromVisibWave heightAir tempDewpointWater temp
2016-Jul-25 16:25N 34°29' E 138°30'69 9.9
2016-Jul-25 09:26N 35°06' E 139°42'8 9.7
2016-Jul-25 08:33N 35°13' E 139°46'9 9.1
2016-Jul-25 07:33N 35°22' E 139°42'4 3.8
2016-Jul-25 06:31N 35°24' E 139°38'0 0.0
2016-Jul-25 05:31N 35°24' E 139°38'0 0.0
2016-Jul-25 04:31N 35°24' E 139°38'0 0.0
2016-Jul-25 03:31N 35°24' E 139°38'0 0.0
2016-Jul-25 02:31N 35°24' E 139°38'0 0.0
2016-Jul-25 01:31N 35°24' E 139°38'0 0.0
2016-Jul-25 00:31N 35°24' E 139°38'0 0.0
2016-Jul-24 23:31N 35°24' E 139°38'0 0.0
2016-Jul-24 22:31N 35°24' E 139°38'0 0.0
2016-Jul-24 21:31N 35°24' E 139°38'0 0.0
2016-Jul-24 20:31N 35°24' E 139°38'0 0.0
2016-Jul-24 19:31N 35°24' E 139°38'0 0.0
2016-Jul-24 18:31N 35°24' E 139°38'0 0.0
2016-Jul-24 17:31N 35°24' E 139°38'0 0.0
2016-Jul-24 16:31N 35°24' E 139°38'0 0.0
2016-Jul-24 15:31N 35°24' E 139°38'0 0.0
2016-Jul-24 14:31N 35°24' E 139°38'0 0.0
2016-Jul-24 13:31N 35°24' E 139°38'0 0.0
2016-Jul-24 12:31N 35°24' E 139°38'0 0.0
2016-Jul-24 11:31N 35°24' E 139°38'0 0.0
2016-Jul-24 10:31N 35°24' E 139°38'0 0.0
2016-Jul-24 09:31N 35°24' E 139°38'0 0.0
2016-Jul-24 08:31N 35°24' E 139°38'0 0.0
2016-Jul-24 07:31N 35°24' E 139°38'0 0.0
2016-Jul-24 06:31N 35°24' E 139°38'0 0.0
2016-Jul-24 05:31N 35°24' E 139°38'0 0.0
2016-Jul-24 04:31N 35°24' E 139°38'0 0.0
2016-Jul-24 03:31N 35°24' E 139°38'0 0.0
2016-Jul-24 02:31N 35°24' E 139°38'0 0.0
2016-Jul-24 01:31N 35°24' E 139°38'0 0.0
2016-Jul-24 00:31N 35°24' E 139°38'0 0.0
2016-Jul-23 23:32N 35°24' E 139°38'2 1.7
2016-Jul-23 22:34N 35°23' E 139°40'0 0.3
2016-Jul-23 21:31N 35°23' E 139°40'0 0.0
2016-Jul-23 20:31N 35°23' E 139°40'0 0.1
2016-Jul-23 19:33N 35°23' E 139°40'4 4.3
2016-Jul-23 18:33N 35°20' E 139°43'10 9.8
2016-Jul-23 17:33N 35°11' E 139°47'10 9.9
2016-Jul-23 16:33N 35°02' E 139°41'  

Dump ship's entire track history